createdAt,value
2022-12-28T00:02:29.660Z,88.80
2022-12-28T00:07:31.808Z,89.00
2022-12-28T00:12:33.939Z,89.30
2022-12-28T00:17:37.435Z,89.50
2022-12-28T00:22:39.638Z,89.80
2022-12-28T00:27:41.783Z,90.00
2022-12-28T00:32:45.444Z,90.10
2022-12-28T00:37:47.778Z,90.20
2022-12-28T00:42:49.909Z,90.30
2022-12-28T00:47:53.422Z,90.30
2022-12-28T00:52:55.582Z,90.40
2022-12-28T00:57:59.433Z,90.50
2022-12-28T01:03:03.605Z,90.60
2022-12-28T01:08:06.386Z,90.70
2022-12-28T01:13:08.602Z,90.80
2022-12-28T01:18:12.640Z,90.90
2022-12-28T01:23:15.462Z,91.00
2022-12-28T01:28:17.736Z,91.00
2022-12-28T01:33:21.276Z,91.00
2022-12-28T01:38:23.383Z,91.10
2022-12-28T01:43:40.538Z,91.10
2022-12-28T01:48:45.336Z,91.30
2022-12-28T01:53:49.065Z,91.30
2022-12-28T01:58:51.303Z,91.50
2022-12-28T02:03:54.845Z,91.50
2022-12-28T02:09:05.493Z,91.50
2022-12-28T02:14:09.241Z,91.50
2022-12-28T02:19:18.341Z,91.50
2022-12-28T02:24:46.410Z,91.50
2022-12-28T02:30:06.161Z,91.50
2022-12-28T02:35:17.583Z,91.50
2022-12-28T02:40:23.419Z,91.50
2022-12-28T02:45:38.460Z,91.50
2022-12-28T02:51:04.243Z,91.60
2022-12-28T02:56:20.030Z,91.60
2022-12-28T03:01:33.370Z,91.60
2022-12-28T03:06:42.573Z,91.80
2022-12-28T03:11:51.240Z,91.90
2022-12-28T03:16:59.754Z,91.90
2022-12-28T03:22:01.983Z,92.00
2022-12-28T03:27:10.422Z,92.00
2022-12-28T03:32:14.588Z,91.90
2022-12-28T03:37:22.211Z,92.00
2022-12-28T03:42:27.731Z,92.00
2022-12-28T03:47:33.321Z,92.10
2022-12-28T03:52:35.732Z,92.20
2022-12-28T03:57:37.819Z,92.30
2022-12-28T04:02:41.464Z,92.40
2022-12-28T04:07:43.936Z,92.40
2022-12-28T04:12:46.030Z,92.40
2022-12-28T04:17:49.566Z,92.50
2022-12-28T04:22:51.674Z,92.50
2022-12-28T04:27:53.767Z,92.60
2022-12-28T04:32:57.284Z,92.70
2022-12-28T04:37:59.377Z,92.80
2022-12-28T04:43:01.538Z,92.80
2022-12-28T04:48:05.701Z,92.90
2022-12-28T04:53:07.763Z,92.90
2022-12-28T04:58:09.891Z,92.90
2022-12-28T05:03:13.423Z,92.90
2022-12-28T05:08:17.214Z,93.00
2022-12-28T05:13:19.312Z,93.00
2022-12-28T05:18:22.750Z,93.00
2022-12-28T05:23:24.827Z,93.00
2022-12-28T05:28:27.237Z,93.00
2022-12-28T05:33:32.086Z,93.00
2022-12-28T05:38:34.442Z,93.10
2022-12-28T05:43:36.944Z,93.10
2022-12-28T05:48:42.140Z,93.10
2022-12-28T05:53:44.790Z,93.20
2022-12-28T05:58:53.352Z,93.10
2022-12-28T06:03:59.181Z,93.10
2022-12-28T06:09:01.747Z,93.10
2022-12-28T06:14:03.867Z,93.10
2022-12-28T06:19:09.281Z,93.20
2022-12-28T06:24:12.110Z,93.20
2022-12-28T06:29:14.266Z,93.20
2022-12-28T06:34:18.037Z,93.20
2022-12-28T06:39:20.184Z,93.30
2022-12-28T06:44:22.339Z,93.20
2022-12-28T06:49:25.878Z,93.30
2022-12-28T06:54:28.040Z,93.30
2022-12-28T06:59:30.233Z,93.30
2022-12-28T07:04:33.712Z,93.30
2022-12-28T07:09:35.834Z,93.30
2022-12-28T07:14:37.973Z,93.40
2022-12-28T07:19:41.493Z,93.40
2022-12-28T07:24:43.781Z,93.40
2022-12-28T07:29:45.953Z,93.40
2022-12-28T07:34:49.477Z,93.40
2022-12-28T07:39:51.586Z,93.50
2022-12-28T07:44:53.705Z,93.40
2022-12-28T07:49:57.207Z,93.40
2022-12-28T07:54:59.311Z,93.40
2022-12-28T08:00:01.442Z,93.40
2022-12-28T08:05:05.504Z,93.40
2022-12-28T08:10:08.761Z,93.40
2022-12-28T08:15:11.339Z,93.30
2022-12-28T08:20:16.299Z,93.30
2022-12-28T08:25:18.543Z,93.40
2022-12-28T08:30:20.740Z,93.30
2022-12-28T08:35:24.318Z,93.30
2022-12-28T08:40:26.496Z,93.30
2022-12-28T08:45:28.859Z,93.40
2022-12-28T08:50:33.698Z,93.30
2022-12-28T08:55:35.814Z,93.40
2022-12-28T09:00:38.061Z,93.40
2022-12-28T09:05:41.554Z,93.40
2022-12-28T09:10:43.692Z,93.50
2022-12-28T09:15:55.773Z,93.50
2022-12-28T09:21:05.557Z,93.50
2022-12-28T09:26:10.547Z,93.90
2022-12-28T09:31:12.705Z,93.40
2022-12-28T09:36:16.303Z,93.40
2022-12-28T09:41:26.611Z,93.40
2022-12-28T09:46:33.874Z,93.40
2022-12-28T09:51:42.560Z,93.40
2022-12-28T09:56:46.952Z,93.20
2022-12-28T10:01:55.920Z,93.20
2022-12-28T10:06:59.529Z,93.20
2022-12-28T10:12:14.066Z,93.30
2022-12-28T10:17:20.065Z,93.30
2022-12-28T10:22:26.475Z,93.30
2022-12-28T10:27:31.966Z,93.30
2022-12-28T10:32:53.097Z,93.30
2022-12-28T10:38:03.091Z,93.40
2022-12-28T10:43:10.837Z,93.30
2022-12-28T10:48:18.278Z,93.30
2022-12-28T10:53:26.347Z,93.30
2022-12-28T10:58:30.293Z,93.30
2022-12-28T11:03:35.604Z,93.30
2022-12-28T11:08:40.881Z,93.30
2022-12-28T11:13:45.086Z,93.30
2022-12-28T11:18:47.422Z,93.20
2022-12-28T11:23:52.083Z,93.20
2022-12-28T11:28:54.976Z,93.20
2022-12-28T11:33:59.863Z,93.20
2022-12-28T11:39:47.029Z,93.20
2022-12-28T11:44:53.369Z,93.20
2022-12-28T11:49:55.675Z,93.10
2022-12-28T11:55:00.921Z,93.10
2022-12-28T12:00:45.616Z,93.10
2022-12-28T12:05:50.653Z,93.20
2022-12-28T12:11:39.938Z,93.20
2022-12-28T12:16:50.869Z,93.20
2022-12-28T12:22:01.554Z,93.20
2022-12-28T12:27:39.202Z,93.20
2022-12-28T12:32:44.666Z,93.20
2022-12-28T12:37:54.159Z,93.20
2022-12-28T12:43:21.836Z,93.20
2022-12-28T12:49:00.084Z,93.20
2022-12-28T12:54:23.613Z,93.20
2022-12-28T12:59:42.759Z,93.10
2022-12-28T13:04:45.057Z,93.10
2022-12-28T13:09:48.430Z,93.10
2022-12-28T13:14:57.824Z,93.10
2022-12-28T13:20:21.710Z,93.00
2022-12-28T13:25:26.961Z,93.10
2022-12-28T13:30:31.281Z,93.10
2022-12-28T13:35:34.214Z,93.10
2022-12-28T13:40:41.033Z,93.10
2022-12-28T13:45:50.883Z,93.10
2022-12-28T13:50:53.872Z,93.10
2022-12-28T13:55:58.950Z,93.10
2022-12-28T14:01:07.579Z,93.10
2022-12-28T14:06:10.390Z,93.10
2022-12-28T14:11:13.334Z,93.10
2022-12-28T14:16:18.163Z,93.20
2022-12-28T14:21:33.797Z,93.20
2022-12-28T14:26:38.161Z,93.20
2022-12-28T14:31:42.744Z,93.20
2022-12-28T14:36:49.819Z,93.20
2022-12-28T14:41:52.716Z,93.20
2022-12-28T14:46:56.983Z,93.20
2022-12-28T14:52:33.201Z,93.10
2022-12-28T14:57:41.064Z,93.00
2022-12-28T15:02:44.773Z,93.00
2022-12-28T15:07:47.031Z,92.90
2022-12-28T15:12:49.190Z,92.90
2022-12-28T15:17:52.760Z,92.80
2022-12-28T15:22:54.957Z,92.80
2022-12-28T15:27:58.503Z,92.80
2022-12-28T15:33:02.952Z,92.70
2022-12-28T15:38:05.319Z,92.70
2022-12-28T15:43:07.427Z,92.70
2022-12-28T15:48:11.408Z,92.70
2022-12-28T15:53:13.885Z,92.60
2022-12-28T15:58:16.428Z,92.60
2022-12-28T16:03:20.012Z,92.60
2022-12-28T16:08:22.408Z,92.50
2022-12-28T16:13:25.884Z,92.40
2022-12-28T16:18:30.517Z,92.50
2022-12-28T16:23:34.301Z,92.50
2022-12-28T16:28:37.792Z,92.60
2022-12-28T16:33:41.584Z,92.60
2022-12-28T16:38:43.689Z,92.60
2022-12-28T16:43:46.289Z,92.60
2022-12-28T16:48:50.174Z,92.60
2022-12-28T16:53:52.632Z,92.60
2022-12-28T16:58:56.854Z,92.60
2022-12-28T17:04:04.132Z,93.00
2022-12-28T17:09:07.989Z,92.50
2022-12-28T17:14:12.069Z,92.50
2022-12-28T17:19:16.313Z,92.40
2022-12-28T17:24:18.675Z,92.40
2022-12-28T17:29:22.749Z,92.30
2022-12-28T17:34:28.098Z,92.30
2022-12-28T17:39:34.697Z,92.30
2022-12-28T17:44:42.865Z,92.40
2022-12-28T17:49:47.096Z,92.40
2022-12-28T17:54:49.644Z,92.40
2022-12-28T17:59:52.205Z,92.40
2022-12-28T18:04:56.428Z,92.50
2022-12-28T18:09:59.450Z,92.50
2022-12-28T18:15:02.027Z,92.50
2022-12-28T18:20:07.105Z,92.50
2022-12-28T18:25:10.468Z,92.60
2022-12-28T18:30:13.764Z,92.60
2022-12-28T18:35:18.462Z,92.60
2022-12-28T18:40:22.341Z,92.60
2022-12-28T18:45:25.280Z,92.60
2022-12-28T18:50:29.960Z,92.60
2022-12-28T18:55:35.461Z,92.70
2022-12-28T19:00:40.196Z,92.70
2022-12-28T19:06:02.673Z,92.80
2022-12-28T19:11:10.302Z,92.70
2022-12-28T19:16:18.544Z,92.80
2022-12-28T19:21:30.739Z,92.80
2022-12-28T19:26:35.230Z,92.90
2022-12-28T19:31:38.534Z,92.90
2022-12-28T19:36:44.653Z,93.00
2022-12-28T19:41:48.483Z,93.10
2022-12-28T19:46:55.124Z,93.10
2022-12-28T19:52:01.733Z,93.20
2022-12-28T19:57:05.189Z,93.10
2022-12-28T20:02:08.303Z,93.10
2022-12-28T20:07:12.635Z,93.10
2022-12-28T20:12:16.163Z,93.20
2022-12-28T20:17:19.288Z,93.20
2022-12-28T20:22:23.245Z,93.20
2022-12-28T20:27:27.488Z,93.60
2022-12-28T20:32:31.156Z,93.30
2022-12-28T20:37:34.710Z,93.30
2022-12-28T20:42:36.915Z,93.40
2022-12-28T20:47:39.069Z,93.40
2022-12-28T20:52:42.582Z,93.40
2022-12-28T20:57:44.787Z,93.50
2022-12-28T21:02:46.927Z,93.50
2022-12-28T21:07:50.576Z,93.50
2022-12-28T21:12:52.716Z,93.60
2022-12-28T21:17:54.853Z,93.60
2022-12-28T21:22:58.359Z,93.60
2022-12-28T21:28:00.485Z,94.00
2022-12-28T21:33:02.605Z,93.60
2022-12-28T21:38:06.447Z,93.60
2022-12-28T21:43:08.591Z,93.60
2022-12-28T21:48:10.663Z,93.60
2022-12-28T21:53:14.178Z,93.70
2022-12-28T21:58:16.479Z,93.70
2022-12-28T22:03:18.670Z,93.70
2022-12-28T22:08:22.242Z,93.70
2022-12-28T22:13:24.418Z,93.70
2022-12-28T22:23:50.127Z,93.60
2022-12-28T22:28:53.027Z,93.60
2022-12-28T22:33:56.023Z,93.50
2022-12-28T22:38:59.599Z,93.50
2022-12-28T22:44:01.793Z,93.40
2022-12-28T22:49:03.957Z,93.40
2022-12-28T22:54:08.256Z,93.30
2022-12-28T22:59:15.442Z,93.40
2022-12-28T23:04:18.787Z,93.30
2022-12-28T23:09:22.491Z,93.30
2022-12-28T23:14:25.186Z,93.30
2022-12-28T23:19:29.233Z,93.20
2022-12-28T23:24:32.754Z,93.30
2022-12-28T23:29:34.874Z,93.20
2022-12-28T23:34:37.100Z,93.10
2022-12-28T23:39:40.699Z,93.20
2022-12-28T23:44:43.003Z,93.20
2022-12-28T23:49:46.133Z,93.20
2022-12-28T23:54:49.704Z,93.20
2022-12-28T23:59:51.777Z,93.20
